.
WxDataArchive / Data Records for 2013-05-23
2013-05-22 May 2013 2013-05-24

Data Records for Thursday, 23 May 2013

Time	Temp	Chill	HIndex	Humid	Dewpt	 Wind 	HiWind	WindDir	Rain 	Barom 
-----	----	-----	------	-----	-----	------	------	-------	-----	----- 
00:00	64.5	64.5	64.5	83	59.2	0	0	---	0.00	29.722 
00:05	64.5	64.5	64.5	84	59.6	0	0	---	0.00	29.722 
00:10	64.3	64.3	64.3	84	59.4	0	0	---	0.00	29.722 
00:15	64.2	64.2	64.2	84	59.3	0	0	---	0.00	29.720 
00:20	64.2	64.2	64.2	84	59.3	0	0	---	0.00	29.720 
00:25	64.2	64.2	64.2	84	59.3	0	0	---	0.00	29.720 
00:30	64.2	64.2	64.2	84	59.3	0	1	270	0.00	29.722 
00:35	64.2	64.2	64.2	84	59.3	0	1	270	0.00	29.722 
00:40	64.2	64.2	64.2	84	59.3	0	1	270	0.00	29.722 
00:45	64.3	64.3	64.3	84	59.4	0	1	270	0.00	29.721 
00:50	64.3	64.3	64.3	84	59.4	0	1	270	0.00	29.721 
00:55	64.5	64.5	64.5	84	59.6	0	1	270	0.00	29.721 
01:00	64.5	64.5	64.5	84	59.6	0	1	270	0.00	29.722 
01:05	64.5	64.5	64.5	84	59.6	0	1	270	0.00	29.722 
01:10	64.5	64.5	64.5	84	59.6	0	1	270	0.00	29.722 
01:15	64.5	64.5	64.5	84	59.6	0	1	270	0.00	29.719 
01:20	64.5	64.5	64.5	84	59.6	0	0	---	0.00	29.719 
01:25	64.3	64.3	64.3	84	59.4	0	0	---	0.00	29.719 
01:30	64.3	64.3	64.3	84	59.4	0	1	270	0.00	29.723 
01:35	64.0	64.0	64.0	84	59.1	0	0	---	0.00	29.723 
01:40	63.9	63.9	63.9	84	59.0	0	2	270	0.00	29.723 
01:45	63.7	63.7	63.7	84	58.8	0	1	270	0.00	29.722 
01:50	63.5	63.5	63.5	84	58.6	0	1	270	0.00	29.722 
01:55	63.4	63.4	63.4	84	58.5	0	0	---	0.00	29.722 
02:00	63.4	63.4	63.4	84	58.5	0	1	270	0.00	29.723 
02:05	63.2	63.2	63.2	84	58.3	0	1	270	0.00	29.723 
02:10	63.1	63.1	63.1	84	58.2	0	1	270	0.00	29.723 
02:15	62.9	62.9	62.9	85	58.3	0	1	270	0.00	29.724 
02:20	62.7	62.7	62.7	85	58.1	0	1	270	0.00	29.724 
02:25	62.6	62.6	62.6	85	58.0	0	1	270	0.00	29.724 
02:30	62.6	62.6	62.6	85	58.0	0	1	270	0.00	29.725 
02:35	62.4	62.4	62.4	85	57.8	0	1	270	0.00	29.725 
02:40	62.3	62.3	62.3	85	57.7	0	1	270	0.00	29.725 
02:45	62.3	62.3	62.3	86	58.1	0	1	270	0.00	29.725 
02:50	62.1	62.1	62.1	86	57.9	0	1	270	0.00	29.725 
02:55	62.1	62.1	62.1	86	57.9	0	0	---	0.00	29.725 
03:00	62.1	62.1	62.1	86	57.9	0	0	---	0.00	29.726 
03:05	62.1	62.1	62.1	86	57.9	0	0	---	0.00	29.726 
03:10	62.1	62.1	62.1	87	58.2	0	1	270	0.00	29.726 
03:15	62.1	62.1	62.1	87	58.2	0	0	---	0.00	29.727 
03:20	62.3	62.3	62.3	87	58.4	0	1	270	0.00	29.727 
03:25	62.3	62.3	62.3	87	58.4	0	1	270	0.00	29.727 
03:30	62.3	62.3	62.3	87	58.4	0	0	---	0.00	29.729 
03:35	62.3	62.3	62.3	87	58.4	0	0	---	0.00	29.729 
03:40	62.3	62.3	62.3	87	58.4	0	1	270	0.00	29.729 
03:45	62.3	62.3	62.3	87	58.4	0	1	270	0.00	29.727 
03:50	62.3	62.3	62.3	87	58.4	0	3	270	0.00	29.727 
03:55	62.4	62.4	62.4	87	58.5	0	1	270	0.00	29.727 
04:00	62.4	62.4	62.4	86	58.2	0	1	270	0.00	29.727 
04:05	62.3	62.3	62.3	86	58.1	0	1	270	0.00	29.727 
04:10	62.3	62.3	62.3	87	58.4	0	2	270	0.00	29.727 
04:15	62.1	62.1	62.1	87	58.2	0	1	270	0.00	29.723 
04:20	62.1	62.1	62.1	87	58.2	0	0	---	0.00	29.723 
04:25	62.0	62.0	62.0	87	58.1	0	0	---	0.00	29.723 
04:30	61.8	61.8	61.8	87	57.9	0	1	270	0.00	29.728 
04:35	61.6	61.6	61.6	87	57.7	0	0	---	0.00	29.728 
04:40	61.5	61.5	61.5	87	57.6	0	1	270	0.00	29.728 
04:45	61.3	61.3	61.3	88	57.7	0	0	---	0.00	29.733 
04:50	61.3	61.3	61.3	88	57.7	0	0	---	0.00	29.733 
04:55	61.2	61.2	61.2	88	57.6	0	0	---	0.00	29.733 
05:00	61.0	61.0	61.0	88	57.4	0	1	270	0.00	29.738 
05:05	61.0	61.0	61.0	88	57.4	0	1	270	0.00	29.738 
05:10	61.0	61.0	61.0	89	57.7	0	1	270	0.00	29.738 
05:15	61.0	61.0	61.0	89	57.7	0	1	270	0.00	29.741 
05:20	61.0	61.0	61.0	89	57.7	0	1	270	0.00	29.741 
05:25	61.0	61.0	61.0	89	57.7	0	2	270	0.00	29.741 
05:30	61.0	61.0	61.0	88	57.4	0	1	270	0.00	29.746 
05:35	61.0	61.0	61.0	88	57.4	0	1	270	0.00	29.746 
05:40	61.0	61.0	61.0	88	57.4	0	1	270	0.00	29.746 
05:45	60.9	60.9	60.9	88	57.3	1	3	270	0.00	29.747 
05:50	60.9	60.9	60.9	87	57.0	1	3	270	0.00	29.747 
05:55	60.9	60.9	60.9	87	57.0	0	2	270	0.00	29.747 
06:00	60.9	60.9	60.9	86	56.7	1	3	270	0.00	29.747 
06:05	61.0	61.0	61.0	86	56.8	0	2	270	0.00	29.747 
06:10	61.0	61.0	61.0	85	56.5	0	2	270	0.00	29.747 
06:15	60.9	60.9	60.9	85	56.4	0	2	270	0.00	29.759 
06:20	60.9	60.9	60.9	84	56.0	1	3	270	0.00	29.759 
06:25	60.9	60.9	60.9	84	56.0	0	3	270	0.00	29.759 
06:30	60.9	60.9	60.9	84	56.0	0	3	270	0.00	29.762 
06:35	60.9	60.9	60.9	84	56.0	1	4	270	0.00	29.762 
06:40	60.9	60.9	60.9	84	56.0	1	3	270	0.00	29.762 
06:45	60.9	60.9	60.9	84	56.0	0	1	270	0.00	29.764 
06:50	60.7	60.7	60.7	84	55.8	1	3	270	0.00	29.764 
06:55	60.7	60.7	60.7	84	55.8	0	2	270	0.00	29.764 
07:00	60.7	60.7	60.7	84	55.8	0	3	270	0.00	29.770 
07:05	60.7	60.7	60.7	84	55.8	0	2	270	0.00	29.770 
07:10	60.7	60.7	60.7	84	55.8	0	3	270	0.00	29.770 
07:15	60.7	60.7	60.7	84	55.8	1	4	270	0.00	29.774 
07:20	60.9	60.9	60.9	84	56.0	1	3	270	0.00	29.774 
07:25	60.9	60.9	60.9	84	56.0	0	3	270	0.00	29.774 
07:30	60.9	60.9	60.9	84	56.0	0	1	270	0.00	29.776 
07:35	60.9	60.9	60.9	84	56.0	1	3	270	0.00	29.776 
07:40	60.9	60.9	60.9	84	56.0	0	3	270	0.00	29.776 
07:45	61.0	61.0	61.0	84	56.1	0	3	270	0.00	29.776 
07:50	61.0	61.0	61.0	84	56.1	0	3	270	0.00	29.776 
07:55	61.2	61.2	61.2	84	56.3	0	1	270	0.00	29.776 
08:00	61.3	61.3	61.3	84	56.4	1	3	270	0.00	29.780 
08:05	61.5	61.5	61.5	83	56.3	1	4	270	0.00	29.780 
08:10	61.6	61.6	61.6	83	56.4	1	4	270	0.00	29.780 
08:15	61.6	61.6	61.6	83	56.4	1	3	270	0.00	29.788 
08:20	61.8	61.8	61.8	83	56.6	0	3	270	0.00	29.788 
08:25	61.8	61.8	61.8	82	56.2	1	3	270	0.00	29.788 
08:30	61.8	61.8	61.8	82	56.2	2	4	270	0.00	29.788 
08:35	61.8	61.8	61.8	82	56.2	1	3	270	0.00	29.788 
08:40	62.0	62.0	62.0	83	56.8	0	1	270	0.00	29.788 
08:45	62.6	62.6	62.6	82	57.0	0	2	270	0.00	29.789 
08:50	62.9	62.9	62.9	81	57.0	1	2	270	0.00	29.789 
08:55	62.7	62.7	62.7	80	56.4	2	4	270	0.00	29.789 
09:00	62.9	62.9	62.9	81	57.0	1	3	270	0.00	29.788 
09:05	62.9	62.9	62.9	80	56.6	1	4	270	0.00	29.788 
09:10	63.1	63.1	63.1	80	56.8	1	3	270	0.00	29.788 
09:15	63.2	63.2	63.2	79	56.6	2	5	270	0.00	29.792 
09:20	63.4	63.4	63.4	79	56.8	1	3	270	0.00	29.792 
09:25	63.4	63.4	63.4	78	56.4	1	5	270	0.00	29.792 
09:30	63.2	63.2	63.2	78	56.2	2	5	270	0.00	29.798 
09:35	63.1	63.1	63.1	78	56.1	2	4	270	0.00	29.798 
09:40	62.7	62.7	62.7	79	56.1	2	4	270	0.00	29.798 
09:45	62.7	62.7	62.7	80	56.4	1	3	270	0.00	29.802 
09:50	62.6	62.6	62.6	80	56.3	2	4	270	0.00	29.802 
09:55	62.7	62.7	62.7	81	56.8	2	4	270	0.00	29.802 
10:00	62.7	62.7	62.7	80	56.4	1	4	270	0.00	29.804 
10:05	62.6	62.6	62.6	80	56.3	2	4	270	0.00	29.804 
10:10	62.9	62.9	62.9	79	56.3	2	6	270	0.00	29.804 
10:15	62.9	62.9	62.9	80	56.6	3	5	270	0.00	29.804 
10:20	63.1	63.1	63.1	78	56.1	2	5	292	0.00	29.804 
10:25	63.2	63.2	63.2	77	55.9	2	5	292	0.00	29.804 
10:30	63.4	63.4	63.4	77	56.1	3	5	292	0.00	29.803 
10:35	63.7	63.7	63.7	78	56.7	1	4	292	0.00	29.803 
10:40	63.9	63.9	63.9	77	56.5	2	5	292	0.00	29.803 
10:45	64.0	64.0	64.0	77	56.6	2	4	292	0.00	29.801 
10:50	63.9	63.9	63.9	79	57.3	1	3	292	0.00	29.801 
10:55	63.5	63.5	63.5	80	57.2	2	6	292	0.00	29.801 
11:00	63.2	63.2	63.2	82	57.6	1	5	270	0.01	29.803 
11:05	63.1	63.1	63.1	84	58.2	0	1	270	0.00	29.803 
11:10	62.7	62.7	62.7	85	58.1	0	3	270	0.01	29.803 
11:15	62.4	62.4	62.4	86	58.2	0	3	270	0.01	29.808 
11:20	62.1	62.1	62.1	87	58.2	1	3	270	0.02	29.808 
11:25	61.6	61.6	61.6	88	58.0	1	3	292	0.01	29.808 
11:30	61.0	61.0	61.0	88	57.4	1	4	292	0.01	29.813 
11:35	60.5	60.5	60.5	89	57.2	2	5	292	0.02	29.813 
11:40	60.7	60.7	60.7	91	58.1	1	3	292	0.00	29.813 
11:45	60.9	60.9	60.9	91	58.3	1	3	292	0.01	29.813 
11:50	60.9	60.9	60.9	91	58.3	1	4	292	0.00	29.813 
11:55	60.5	60.5	60.5	91	57.9	3	5	270	0.00	29.813 
12:00	60.4	60.4	60.4	92	58.1	1	3	292	0.00	29.819 
12:05	60.4	60.4	60.4	92	58.1	2	4	292	0.00	29.819 
12:10	60.4	60.4	60.4	92	58.1	2	6	315	0.00	29.819 
12:15	60.2	60.2	60.2	91	57.6	2	5	270	0.00	29.825 
12:20	59.9	59.9	59.9	91	57.3	3	5	270	0.00	29.825 
12:25	59.8	59.8	59.8	91	57.2	3	6	270	0.00	29.825 
12:30	59.6	59.6	59.6	90	56.7	3	6	292	0.00	29.830 
12:35	59.5	59.5	59.5	90	56.6	3	5	292	0.00	29.830 
12:40	59.6	59.6	59.6	89	56.4	4	7	270	0.00	29.830 
12:45	59.6	59.6	59.6	88	56.0	4	7	270	0.00	29.832 
12:50	59.9	59.9	59.9	87	56.0	3	6	270	0.00	29.832 
12:55	60.2	60.2	60.2	86	56.0	3	5	270	0.00	29.832 
13:00	59.9	59.9	59.9	85	55.4	3	9	270	0.00	29.832 
13:05	60.1	60.1	60.1	85	55.6	3	5	270	0.00	29.832 
13:10	60.2	60.2	60.2	84	55.3	3	7	270	0.00	29.832 
13:15	59.9	59.9	59.9	82	54.4	4	8	270	0.00	29.837 
13:20	59.5	59.5	59.5	81	53.7	5	10	270	0.00	29.837 
13:25	59.3	59.3	59.3	81	53.5	4	10	270	0.00	29.837 
13:30	59.2	59.2	59.2	81	53.4	3	7	315	0.00	29.843 
13:35	59.3	59.3	59.3	81	53.5	3	5	292	0.00	29.843 
13:40	59.2	59.2	59.2	81	53.4	4	8	270	0.00	29.843 
13:45	58.7	58.7	58.7	81	52.9	4	6	270	0.00	29.853 
13:50	58.4	58.4	58.4	81	52.6	4	7	270	0.00	29.853 
13:55	58.3	58.3	58.3	81	52.5	4	6	270	0.00	29.853 
14:00	58.0	58.0	58.0	81	52.2	4	7	270	0.00	29.855 
14:05	57.8	57.8	57.8	82	52.3	3	6	270	0.00	29.855 
14:10	57.3	57.3	57.3	81	51.5	4	7	270	0.00	29.855 
14:15	57.2	57.2	57.2	82	51.8	3	6	270	0.00	29.865 
14:20	56.7	56.7	56.7	81	50.9	3	10	292	0.00	29.865 
14:25	56.5	56.5	56.5	81	50.7	4	7	292	0.00	29.865 
14:30	56.3	56.3	56.3	82	50.9	3	7	315	0.00	29.875 
14:35	55.7	55.7	55.7	81	50.0	4	7	270	0.00	29.875 
14:40	55.4	55.4	55.4	82	50.0	3	7	315	0.00	29.875 
14:45	55.3	55.3	55.3	82	49.9	3	7	292	0.00	29.881 
14:50	55.1	55.1	55.1	82	49.7	3	6	270	0.00	29.881 
14:55	55.1	55.1	55.1	83	50.0	2	5	270	0.00	29.881 
15:00	55.1	55.1	55.1	83	50.0	2	5	270	0.00	29.890 
15:05	54.8	54.8	54.8	82	49.4	3	7	292	0.00	29.890 
15:10	54.7	54.7	54.7	83	49.6	3	5	315	0.00	29.890 
15:15	54.7	54.7	54.7	83	49.6	3	9	315	0.00	29.897 
15:20	54.7	54.7	54.7	83	49.6	2	6	270	0.00	29.897 
15:25	54.8	54.8	54.8	83	49.7	3	6	270	0.00	29.897 
15:30	55.1	55.1	55.1	83	50.0	2	5	270	0.00	29.897 
15:35	55.6	55.6	55.6	83	50.5	2	5	270	0.00	29.897 
15:40	56.0	56.0	56.0	82	50.6	3	5	270	0.00	29.897 
15:45	56.0	56.0	56.0	81	50.3	2	7	315	0.00	29.902 
15:50	56.2	56.2	56.2	81	50.4	2	5	292	0.00	29.902 
15:55	56.3	56.3	56.3	81	50.5	2	6	292	0.00	29.902 
16:00	56.5	56.5	56.5	80	50.4	2	4	338	0.00	29.908 
16:05	56.6	56.6	56.6	81	50.8	2	5	338	0.00	29.908 
16:10	56.3	56.3	56.3	81	50.5	2	10	338	0.00	29.908 
16:15	56.3	56.3	56.3	81	50.5	2	6	292	0.00	29.923 
16:20	55.9	55.9	55.9	81	50.2	2	5	315	0.00	29.923 
16:25	55.6	55.6	55.6	80	49.5	2	9	315	0.00	29.923 
16:30	56.0	56.0	56.0	81	50.3	2	5	315	0.00	29.928 
16:35	56.3	56.3	56.3	78	49.5	2	7	338	0.00	29.928 
16:40	56.3	56.3	56.3	78	49.5	2	5	338	0.00	29.928 
16:45	56.3	56.3	56.3	78	49.5	2	5	0	0.00	29.944 
16:50	56.3	56.3	56.3	77	49.2	2	6	315	0.00	29.944 
16:55	56.2	56.2	56.2	78	49.4	2	5	292	0.00	29.944 
17:00	55.9	55.9	55.9	77	48.8	3	9	338	0.00	29.952 
17:05	55.6	55.6	55.6	76	48.2	2	5	315	0.00	29.952 
17:10	55.4	55.4	55.4	77	48.3	2	5	315	0.00	29.952 
17:15	55.1	55.1	55.1	76	47.7	2	7	315	0.00	29.963 
17:20	54.8	54.8	54.8	77	47.7	3	6	315	0.00	29.963 
17:25	54.7	54.7	54.7	77	47.6	3	7	315	0.00	29.963 
17:30	54.5	54.5	54.5	77	47.4	2	7	338	0.00	29.970 
17:35	54.7	54.7	54.7	77	47.6	1	5	338	0.00	29.970 
17:40	54.7	54.7	54.7	77	47.6	1	3	338	0.00	29.970 
17:45	54.5	54.5	54.5	77	47.4	3	6	315	0.00	29.983 
17:50	54.5	54.5	54.5	77	47.4	2	5	338	0.00	29.983 
17:55	54.4	54.4	54.4	77	47.3	2	4	270	0.00	29.983 
18:00	54.4	54.4	54.4	77	47.3	2	5	315	0.00	29.989 
18:05	54.2	54.2	54.2	77	47.1	2	9	315	0.00	29.989 
18:10	54.2	54.2	54.2	77	47.1	1	4	0	0.00	29.989 
18:15	54.2	54.2	54.2	77	47.1	1	4	315	0.00	29.993 
18:20	54.1	54.1	54.1	79	47.7	2	5	315	0.00	29.993 
18:25	54.1	54.1	54.1	79	47.7	2	5	338	0.00	29.993 
18:30	53.9	53.9	53.9	79	47.5	2	5	338	0.00	30.002 
18:35	53.6	53.6	53.6	80	47.6	3	7	315	0.00	30.002 
18:40	53.3	53.3	53.3	81	47.6	2	5	315	0.00	30.002 
18:45	53.3	53.3	53.3	82	47.9	1	4	315	0.00	30.010 
18:50	53.5	53.5	53.5	82	48.1	1	4	315	0.00	30.010 
18:55	53.5	53.5	53.5	82	48.1	2	4	292	0.00	30.010 
19:00	53.6	53.6	53.6	81	47.9	2	6	292	0.00	30.015 
19:05	53.9	53.9	53.9	82	48.5	1	3	338	0.00	30.015 
19:10	54.1	54.1	54.1	80	48.1	1	3	338	0.00	30.015 
19:15	54.1	54.1	54.1	80	48.1	2	6	315	0.00	30.020 
19:20	54.1	54.1	54.1	78	47.4	2	5	270	0.00	30.020 
19:25	54.1	54.1	54.1	78	47.4	1	4	292	0.00	30.020 
19:30	54.1	54.1	54.1	77	47.0	2	5	270	0.00	30.027 
19:35	53.9	53.9	53.9	76	46.5	2	7	315	0.00	30.027 
19:40	53.8	53.8	53.8	76	46.4	2	9	338	0.00	30.027 
19:45	53.9	53.9	53.9	77	46.9	1	4	338	0.00	30.039 
19:50	53.8	53.8	53.8	76	46.4	2	7	338	0.00	30.039 
19:55	53.5	53.5	53.5	76	46.1	2	6	292	0.00	30.039 
20:00	53.5	53.5	53.5	76	46.1	1	5	315	0.00	30.048 
20:05	53.3	53.3	53.3	77	46.3	2	4	315	0.00	30.048 
20:10	53.2	53.2	53.2	76	45.8	2	5	338	0.00	30.048 
20:15	53.2	53.2	53.2	76	45.8	2	6	338	0.00	30.056 
20:20	53.1	53.1	53.1	77	46.1	1	4	270	0.00	30.056 
20:25	53.1	53.1	53.1	77	46.1	1	4	315	0.00	30.056 
20:30	52.8	52.8	52.8	75	45.1	2	5	338	0.00	30.067 
20:35	52.6	52.6	52.6	75	44.9	1	5	315	0.00	30.067 
20:40	52.5	52.5	52.5	74	44.5	2	5	338	0.00	30.067 
20:45	52.5	52.5	52.5	74	44.5	1	4	292	0.00	30.071 
20:50	52.3	52.3	52.3	73	43.9	2	5	292	0.00	30.071 
20:55	52.2	52.2	52.2	74	44.2	1	3	315	0.00	30.071 
21:00	52.2	52.2	52.2	74	44.2	0	2	315	0.00	30.077 
21:05	52.0	52.0	52.0	75	44.3	0	3	315	0.00	30.077 
21:10	52.0	52.0	52.0	75	44.3	0	5	338	0.00	30.077 
21:15	51.9	51.9	51.9	75	44.2	1	3	338	0.00	30.079 
21:20	51.9	51.9	51.9	76	44.6	1	3	338	0.00	30.079 
21:25	51.9	51.9	51.9	76	44.6	0	2	22	0.00	30.079 
21:30	51.9	51.9	51.9	76	44.6	0	2	22	0.00	30.087 
21:35	51.7	51.7	51.7	76	44.4	1	3	22	0.00	30.087 
21:40	51.7	51.7	51.7	77	44.7	0	1	22	0.00	30.087 
21:45	51.7	51.7	51.7	77	44.7	0	1	22	0.00	30.093 
21:50	51.7	51.7	51.7	77	44.7	0	0	---	0.00	30.093 
21:55	51.7	51.7	51.7	78	45.1	0	1	22	0.00	30.093 
22:00	51.7	51.7	51.7	78	45.1	0	1	22	0.00	30.102 
22:05	51.7	51.7	51.7	78	45.1	0	1	22	0.00	30.102 
22:10	51.7	51.7	51.7	78	45.1	0	0	---	0.00	30.102 
22:15	51.6	51.6	51.6	78	45.0	0	1	22	0.00	30.105 
22:20	51.6	51.6	51.6	79	45.3	0	0	---	0.00	30.105 
22:25	51.6	51.6	51.6	79	45.3	0	2	22	0.00	30.105 
22:30	51.6	51.6	51.6	79	45.3	1	3	338	0.00	30.118 
22:35	51.6	51.6	51.6	80	45.6	0	1	315	0.00	30.118 
22:40	51.7	51.7	51.7	80	45.7	0	2	315	0.00	30.118 
22:45	51.7	51.7	51.7	80	45.7	0	1	315	0.00	30.124 
22:50	51.7	51.7	51.7	80	45.7	0	2	315	0.00	30.124 
22:55	51.7	51.7	51.7	80	45.7	0	3	315	0.00	30.124 
23:00	51.7	51.7	51.7	81	46.1	0	3	315	0.00	30.129 
23:05	51.9	51.9	51.9	81	46.3	1	6	315	0.00	30.129 
23:10	51.6	51.6	51.6	81	46.0	1	4	338	0.00	30.129 
23:15	51.1	51.1	51.1	80	45.1	3	9	315	0.00	30.139 
23:20	50.8	50.8	50.8	80	44.9	1	6	45	0.00	30.139 
23:25	50.5	50.5	50.5	80	44.6	2	6	315	0.00	30.139 
23:30	50.4	50.4	50.4	80	44.5	1	3	292	0.00	30.145 
23:35	50.2	50.2	50.2	81	44.6	1	4	292	0.00	30.145 
23:40	50.2	50.2	50.2	81	44.6	0	3	292	0.00	30.145 
23:45	50.2	50.2	50.2	81	44.6	1	3	292	0.00	30.146 
23:50	50.1	50.1	50.1	81	44.5	1	4	292	0.00	30.146 
23:55	50.1	50.1	50.1	81	44.5	1	4	292	0.00	30.146 

CoCoRaHS
IN-AL-39
A2 Web Hosting
Creative Commons License
GoDaddy
search engine by freefind advanced

loaded 2018-11-16 01:24:16 • last modified 2010-11-18 10:43:29
Privacy PolicyDisclaimer
• wx.awcolley.com is powered by PmWiki v.2002016 •
• all content (unless otherwise noted) © 2018 A W Colley